Weather at Theodore Francis Green State Airport

Public forecast

Using degrees Fahrenheit for public forecast. Weather courtesy of forecast.io.

Current aviation weather report (METAR) for Theodore Francis Green State Airport

2024/06/16 12:51 (retrieved 27 minutes ago)

KPVD 161251Z 01007KT 10SM FEW250 18/07 A3027 RMK AO2 SLP251 T01830067

Aviation forecast (TAF) for Theodore Francis Green State Airport

2024/06/16 12:22 (retrieved 56 minutes ago)

TAF KPVD 161120Z 1612/1712 01006KT P6SM FEW250 FM161800 14005KT P6SM FEW250 FM162000 16007KT P6SM FEW250 FM170200 20003KT P6SM FEW200